createdAt,value
2018-11-03T00:01:30.981Z,9.01
2018-11-03T00:03:58.415Z,9.07
2018-11-03T00:06:25.846Z,9.07
2018-11-03T00:08:53.370Z,9.09
2018-11-03T00:11:20.854Z,9.14
2018-11-03T00:13:48.505Z,9.26
2018-11-03T00:16:16.225Z,9.02
2018-11-03T00:18:43.657Z,9.10
2018-11-03T00:21:11.195Z,9.22
2018-11-03T00:23:38.634Z,8.97
2018-11-03T00:26:06.233Z,8.92
2018-11-03T00:28:33.669Z,9.08
2018-11-03T00:31:01.274Z,9.04
2018-11-03T00:33:28.734Z,8.99
2018-11-03T00:35:56.169Z,9.10
2018-11-03T00:38:23.697Z,9.16
2018-11-03T00:40:51.155Z,8.80
2018-11-03T00:43:18.595Z,9.02
2018-11-03T00:45:46.109Z,9.09
2018-11-03T00:48:13.575Z,8.79
2018-11-03T00:50:41.249Z,8.93
2018-11-03T00:53:08.672Z,9.08
2018-11-03T00:55:36.111Z,9.05
2018-11-03T00:58:03.546Z,9.15
2018-11-03T01:00:30.977Z,9.17
2018-11-03T01:02:58.414Z,9.25
2018-11-03T01:05:25.855Z,9.21
2018-11-03T01:07:53.399Z,9.13
2018-11-03T01:10:20.831Z,9.10
2018-11-03T01:12:48.277Z,9.02
2018-11-03T01:15:16.757Z,8.78
2018-11-03T01:17:44.429Z,8.62
2018-11-03T01:20:13.234Z,8.74
2018-11-03T01:22:40.674Z,8.78
2018-11-03T01:25:08.691Z,8.92
2018-11-03T01:27:36.131Z,9.03
2018-11-03T01:30:03.702Z,9.08
2018-11-03T01:32:31.188Z,9.12
2018-11-03T01:34:58.600Z,9.13
2018-11-03T01:37:26.037Z,8.97
2018-11-03T01:39:53.489Z,9.04
2018-11-03T01:42:20.942Z,9.19
2018-11-03T01:44:48.393Z,9.19
2018-11-03T01:47:15.821Z,9.17
2018-11-03T01:49:43.258Z,9.21
2018-11-03T01:52:10.717Z,9.23
2018-11-03T01:54:38.141Z,9.18
2018-11-03T01:57:05.585Z,9.15
2018-11-03T01:59:33.039Z,9.23
2018-11-03T02:02:00.471Z,9.25
2018-11-03T02:04:27.902Z,9.20
2018-11-03T02:06:55.342Z,9.20
2018-11-03T02:09:22.810Z,9.31
2018-11-03T02:11:50.274Z,9.38
2018-11-03T02:14:17.713Z,9.34
2018-11-03T02:16:45.146Z,9.29
2018-11-03T02:19:12.598Z,9.12
2018-11-03T02:21:40.065Z,9.14
2018-11-03T02:24:07.629Z,9.09
2018-11-03T02:26:35.118Z,9.13
2018-11-03T02:29:02.756Z,9.07
2018-11-03T02:31:30.190Z,9.02
2018-11-03T02:33:57.657Z,9.08
2018-11-03T02:36:25.258Z,8.99
2018-11-03T02:38:52.789Z,8.96
2018-11-03T02:41:20.446Z,8.99
2018-11-03T02:43:47.893Z,8.89
2018-11-03T02:46:15.466Z,8.80
2018-11-03T02:48:42.956Z,8.82
2018-11-03T02:51:10.447Z,8.78
2018-11-03T02:53:37.857Z,8.82
2018-11-03T02:56:05.715Z,8.68
2018-11-03T02:58:33.175Z,8.61
2018-11-03T03:01:00.597Z,8.33
2018-11-03T03:03:28.053Z,8.37
2018-11-03T03:05:55.488Z,8.45
2018-11-03T03:08:22.926Z,8.60
2018-11-03T03:10:50.378Z,8.62
2018-11-03T03:13:17.838Z,8.66
2018-11-03T03:15:45.419Z,8.67
2018-11-03T03:18:12.896Z,8.66
2018-11-03T03:20:40.792Z,8.68
2018-11-03T03:23:08.240Z,8.71
2018-11-03T03:25:36.023Z,8.64
2018-11-03T03:28:03.462Z,8.72
2018-11-03T03:30:30.902Z,8.63
2018-11-03T03:32:58.357Z,8.56
2018-11-03T03:35:25.803Z,8.61
2018-11-03T03:37:53.270Z,8.67
2018-11-03T03:40:20.722Z,8.71
2018-11-03T03:42:48.165Z,8.78
2018-11-03T03:45:15.599Z,8.77
2018-11-03T03:47:43.043Z,8.73
2018-11-03T03:50:11.125Z,8.65
2018-11-03T03:52:38.837Z,8.65
2018-11-03T03:55:06.294Z,8.61
2018-11-03T03:57:33.785Z,8.71
2018-11-03T04:00:01.217Z,8.70
2018-11-03T04:02:28.651Z,8.79
2018-11-03T04:04:56.096Z,8.78
2018-11-03T04:07:23.587Z,8.66
2018-11-03T04:09:51.151Z,8.72
2018-11-03T04:12:18.593Z,8.69
2018-11-03T04:14:46.040Z,8.76
2018-11-03T04:17:13.590Z,8.61
2018-11-03T04:19:41.037Z,8.67
2018-11-03T04:22:08.965Z,8.83
2018-11-03T04:24:36.495Z,8.80
2018-11-03T04:27:03.977Z,8.69
2018-11-03T04:29:31.420Z,8.67
2018-11-03T04:31:59.125Z,8.66
2018-11-03T04:34:26.558Z,8.60
2018-11-03T04:36:53.997Z,8.72
2018-11-03T04:39:21.434Z,8.92
2018-11-03T04:41:48.983Z,8.90
2018-11-03T04:44:16.435Z,8.82
2018-11-03T04:46:44.114Z,8.88
2018-11-03T04:49:11.605Z,9.08
2018-11-03T04:51:39.125Z,8.98
2018-11-03T04:54:06.554Z,8.81
2018-11-03T04:56:34.032Z,8.96
2018-11-03T04:59:01.468Z,8.98
2018-11-03T05:01:29.050Z,9.01
2018-11-03T05:03:56.514Z,8.92
2018-11-03T05:06:23.972Z,8.97
2018-11-03T05:08:51.431Z,8.95
2018-11-03T05:11:18.950Z,8.92
2018-11-03T05:13:46.382Z,9.01
2018-11-03T05:16:13.814Z,9.07
2018-11-03T05:18:41.609Z,9.14
2018-11-03T05:21:09.095Z,9.14
2018-11-03T05:23:36.565Z,9.03
2018-11-03T05:26:04.013Z,9.00
2018-11-03T05:28:31.489Z,8.95
2018-11-03T05:30:58.963Z,8.90
2018-11-03T05:33:26.378Z,8.79
2018-11-03T05:35:53.809Z,8.79
2018-11-03T05:38:21.248Z,8.88
2018-11-03T05:40:48.678Z,8.99
2018-11-03T05:43:16.130Z,8.98
2018-11-03T05:45:43.617Z,8.99
2018-11-03T05:48:11.109Z,8.93
2018-11-03T05:50:38.550Z,8.93
2018-11-03T05:53:05.993Z,8.90
2018-11-03T05:55:33.422Z,8.80
2018-11-03T05:58:00.855Z,8.60
2018-11-03T06:00:29.271Z,8.53
2018-11-03T06:02:58.009Z,8.64
2018-11-03T06:05:25.494Z,8.81
2018-11-03T06:07:53.030Z,8.76
2018-11-03T06:10:20.466Z,8.79
2018-11-03T06:12:47.894Z,8.82
2018-11-03T06:15:15.443Z,8.82
2018-11-03T06:17:42.925Z,8.77
2018-11-03T06:20:10.350Z,8.65
2018-11-03T06:22:37.995Z,8.55
2018-11-03T06:25:05.263Z,8.82
2018-11-03T06:27:32.695Z,8.83
2018-11-03T06:30:00.182Z,8.83
2018-11-03T06:32:27.626Z,8.74
2018-11-03T06:34:55.061Z,8.83
2018-11-03T06:37:22.570Z,8.91
2018-11-03T06:39:50.114Z,8.91
2018-11-03T06:42:17.597Z,8.85
2018-11-03T06:44:45.129Z,8.88
2018-11-03T06:47:12.605Z,8.93
2018-11-03T06:49:40.027Z,8.88
2018-11-03T06:52:07.505Z,8.89
2018-11-03T06:54:34.902Z,8.79
2018-11-03T06:57:02.402Z,8.76
2018-11-03T06:59:29.936Z,8.83
2018-11-03T07:01:57.369Z,8.84
2018-11-03T07:04:24.806Z,8.83
2018-11-03T07:06:52.250Z,8.88
2018-11-03T07:09:19.681Z,8.97
2018-11-03T07:11:47.201Z,8.95
2018-11-03T07:14:14.539Z,8.97
2018-11-03T07:16:42.727Z,8.95
2018-11-03T07:19:10.210Z,8.97
2018-11-03T07:21:37.708Z,8.90
2018-11-03T07:24:05.080Z,9.02
2018-11-03T07:26:32.513Z,8.99
2018-11-03T07:29:00.102Z,9.12
2018-11-03T07:31:27.620Z,9.31
2018-11-03T07:33:55.138Z,9.22
2018-11-03T07:36:22.657Z,9.19
2018-11-03T07:38:50.097Z,9.30
2018-11-03T07:41:17.623Z,9.49
2018-11-03T07:43:45.024Z,9.50
2018-11-03T07:46:12.458Z,9.68
2018-11-03T07:48:39.973Z,9.86
2018-11-03T07:51:07.366Z,9.77
2018-11-03T07:53:34.862Z,9.85
2018-11-03T07:56:02.323Z,10.06
2018-11-03T07:58:29.765Z,10.28
2018-11-03T08:00:57.201Z,10.08
2018-11-03T08:03:24.706Z,10.24
2018-11-03T08:05:52.258Z,10.55
2018-11-03T08:08:19.823Z,10.37
2018-11-03T08:10:47.309Z,10.31
2018-11-03T08:13:14.753Z,10.24
2018-11-03T08:15:42.279Z,10.21
2018-11-03T08:18:09.705Z,10.40
2018-11-03T08:20:37.146Z,10.40
2018-11-03T08:23:04.589Z,10.29
2018-11-03T08:25:32.041Z,10.37
2018-11-03T08:27:59.485Z,10.37
2018-11-03T08:30:26.929Z,10.26
2018-11-03T08:32:54.423Z,10.20
2018-11-03T08:35:21.909Z,10.24
2018-11-03T08:37:49.369Z,10.16
2018-11-03T08:40:16.790Z,10.20
2018-11-03T08:42:44.337Z,10.37
2018-11-03T08:45:12.166Z,10.48
2018-11-03T08:47:39.627Z,10.60
2018-11-03T08:50:07.106Z,10.49
2018-11-03T08:52:34.548Z,10.50
2018-11-03T08:55:01.998Z,10.92
2018-11-03T08:57:29.438Z,11.09
2018-11-03T08:59:57.111Z,11.04
2018-11-03T09:02:24.332Z,11.09
2018-11-03T09:04:51.783Z,10.97
2018-11-03T09:07:19.224Z,10.79
2018-11-03T09:09:46.679Z,11.00
2018-11-03T09:12:14.187Z,11.03
2018-11-03T09:14:41.688Z,11.07
2018-11-03T09:17:09.126Z,11.03
2018-11-03T09:19:36.613Z,10.99
2018-11-03T09:22:04.154Z,11.13
2018-11-03T09:24:31.606Z,10.94
2018-11-03T09:26:59.060Z,11.18
2018-11-03T09:29:26.498Z,10.97
2018-11-03T09:31:54.028Z,10.83
2018-11-03T09:34:21.477Z,11.05
2018-11-03T09:36:48.947Z,10.94
2018-11-03T09:39:16.566Z,10.88
2018-11-03T09:41:43.846Z,10.86
2018-11-03T09:44:11.354Z,10.91
2018-11-03T09:46:38.838Z,10.94
2018-11-03T09:49:06.285Z,10.73
2018-11-03T09:51:33.736Z,10.86
2018-11-03T09:54:01.182Z,11.01
2018-11-03T09:56:28.624Z,11.00
2018-11-03T09:58:56.074Z,11.08
2018-11-03T10:01:23.494Z,11.14
2018-11-03T10:03:50.955Z,11.28
2018-11-03T10:06:18.443Z,11.52
2018-11-03T10:08:45.870Z,11.77
2018-11-03T10:11:13.306Z,11.91
2018-11-03T10:13:40.758Z,11.66
2018-11-03T10:16:08.351Z,11.55
2018-11-03T10:18:35.677Z,11.64
2018-11-03T10:21:03.110Z,11.76
2018-11-03T10:23:30.547Z,11.80
2018-11-03T10:25:57.992Z,11.88
2018-11-03T10:28:25.417Z,11.95
2018-11-03T10:30:52.931Z,12.07
2018-11-03T10:33:20.385Z,12.03
2018-11-03T10:35:47.818Z,11.92
2018-11-03T10:38:15.253Z,11.94
2018-11-03T10:40:42.802Z,11.77
2018-11-03T10:43:10.240Z,11.73
2018-11-03T10:45:37.716Z,11.76
2018-11-03T10:48:05.241Z,11.44
2018-11-03T10:50:32.781Z,11.80
2018-11-03T10:53:00.239Z,11.82
2018-11-03T10:55:27.700Z,11.81
2018-11-03T10:57:55.105Z,12.20
2018-11-03T11:00:28.081Z,12.06
2018-11-03T11:03:01.047Z,11.80
2018-11-03T11:05:33.947Z,11.79
2018-11-03T11:08:06.879Z,11.64
2018-11-03T11:10:39.773Z,11.63
2018-11-03T11:13:09.913Z,11.83
2018-11-03T11:15:37.405Z,11.70
2018-11-03T11:18:04.823Z,11.61
2018-11-03T11:20:32.266Z,11.63
2018-11-03T11:22:59.714Z,11.75
2018-11-03T11:25:27.379Z,11.71
2018-11-03T11:27:54.846Z,11.79
2018-11-03T11:30:22.307Z,12.04
2018-11-03T11:32:49.848Z,11.97
2018-11-03T11:35:17.351Z,12.10
2018-11-03T11:37:44.968Z,12.19
2018-11-03T11:40:12.341Z,11.97
2018-11-03T11:42:39.790Z,11.75
2018-11-03T11:45:07.263Z,11.78
2018-11-03T11:47:34.705Z,11.83
2018-11-03T11:50:02.237Z,11.97
2018-11-03T11:52:29.672Z,11.96
2018-11-03T11:54:57.286Z,11.84
2018-11-03T11:57:24.705Z,11.74
2018-11-03T11:59:52.182Z,11.83
2018-11-03T12:02:19.692Z,11.77
2018-11-03T12:04:47.062Z,11.92
2018-11-03T12:07:14.534Z,12.04
2018-11-03T12:09:42.006Z,11.96
2018-11-03T12:12:09.529Z,12.00
2018-11-03T12:14:37.096Z,12.07
2018-11-03T12:17:04.583Z,12.15
2018-11-03T12:19:31.994Z,12.24
2018-11-03T12:21:59.450Z,12.35
2018-11-03T12:24:26.911Z,12.27
2018-11-03T12:26:54.681Z,12.39
2018-11-03T12:29:22.145Z,12.54
2018-11-03T12:31:49.762Z,12.03
2018-11-03T12:34:17.233Z,12.15
2018-11-03T12:36:44.671Z,12.16
2018-11-03T12:39:12.135Z,12.30
2018-11-03T12:41:39.579Z,12.28
2018-11-03T12:44:07.064Z,12.24
2018-11-03T12:46:34.870Z,12.20
2018-11-03T12:49:02.376Z,12.46
2018-11-03T12:51:29.907Z,12.42
2018-11-03T12:53:57.362Z,12.22
2018-11-03T12:56:24.811Z,12.32
2018-11-03T12:58:52.271Z,12.27
2018-11-03T13:01:19.840Z,12.24
2018-11-03T13:03:47.394Z,12.23
2018-11-03T13:06:14.884Z,12.24
2018-11-03T13:08:42.722Z,12.16
2018-11-03T13:11:10.283Z,12.19
2018-11-03T13:13:37.733Z,12.02
2018-11-03T13:16:05.226Z,11.98
2018-11-03T13:18:32.829Z,12.03
2018-11-03T13:21:00.253Z,11.93
2018-11-03T13:23:27.861Z,11.94
2018-11-03T13:25:55.363Z,11.91
2018-11-03T13:28:22.799Z,11.88
2018-11-03T13:30:50.249Z,11.87
2018-11-03T13:33:17.804Z,11.71
2018-11-03T13:35:45.270Z,11.70
2018-11-03T13:38:12.725Z,11.51
2018-11-03T13:40:40.194Z,11.57
2018-11-03T13:43:07.631Z,11.65
2018-11-03T13:45:35.082Z,11.69
2018-11-03T13:48:02.549Z,11.68
2018-11-03T13:50:30.000Z,11.65
2018-11-03T13:52:57.438Z,11.63
2018-11-03T13:55:25.070Z,11.56
2018-11-03T13:57:52.517Z,11.72
2018-11-03T14:00:20.123Z,11.60
2018-11-03T14:02:48.398Z,11.69
2018-11-03T14:05:15.833Z,11.82
2018-11-03T14:07:43.276Z,11.63
2018-11-03T14:10:12.029Z,11.76
2018-11-03T14:12:39.507Z,11.60
2018-11-03T14:15:07.127Z,11.60
2018-11-03T14:17:34.665Z,11.46
2018-11-03T14:20:02.121Z,11.47
2018-11-03T14:22:29.560Z,11.55
2018-11-03T14:24:57.067Z,11.45
2018-11-03T14:27:24.510Z,11.58
2018-11-03T14:29:51.967Z,11.61
2018-11-03T14:32:19.421Z,11.61
2018-11-03T14:34:46.905Z,11.53
2018-11-03T14:37:14.353Z,11.46
2018-11-03T14:39:41.794Z,11.50
2018-11-03T14:42:09.297Z,11.53
2018-11-03T14:44:36.738Z,11.44
2018-11-03T14:47:04.201Z,11.38
2018-11-03T14:49:31.782Z,11.47
2018-11-03T14:51:59.317Z,11.55
2018-11-03T14:54:26.787Z,11.50
2018-11-03T14:56:54.238Z,11.38
2018-11-03T14:59:21.685Z,11.39
2018-11-03T15:01:49.131Z,11.51
2018-11-03T15:04:16.593Z,11.56
2018-11-03T15:06:44.038Z,11.53
2018-11-03T15:09:11.497Z,11.48
2018-11-03T15:11:38.982Z,11.41
2018-11-03T15:14:07.319Z,11.41
2018-11-03T15:16:34.580Z,11.43
2018-11-03T15:19:02.086Z,11.51
2018-11-03T15:21:29.550Z,11.43
2018-11-03T15:23:56.995Z,11.46
2018-11-03T15:26:24.490Z,11.41
2018-11-03T15:28:51.978Z,11.35
2018-11-03T15:31:19.446Z,11.23
2018-11-03T15:33:46.882Z,11.38
2018-11-03T15:36:14.340Z,11.29
2018-11-03T15:38:41.771Z,11.28
2018-11-03T15:41:09.230Z,11.25
2018-11-03T15:43:36.670Z,11.22
2018-11-03T15:46:04.106Z,11.30
2018-11-03T15:48:31.601Z,11.32
2018-11-03T15:50:59.032Z,11.35
2018-11-03T15:53:26.465Z,11.40
2018-11-03T15:55:53.916Z,11.42
2018-11-03T15:58:21.366Z,11.43
2018-11-03T16:00:48.815Z,11.46
2018-11-03T16:03:16.514Z,11.48
2018-11-03T16:05:43.959Z,11.43
2018-11-03T16:08:11.409Z,11.52
2018-11-03T16:10:38.902Z,11.51
2018-11-03T16:13:06.342Z,11.45
2018-11-03T16:15:33.791Z,11.48
2018-11-03T16:18:01.239Z,11.39
2018-11-03T16:20:28.961Z,11.44
2018-11-03T16:22:56.439Z,11.39
2018-11-03T16:25:23.937Z,11.36
2018-11-03T16:27:51.525Z,11.33
2018-11-03T16:30:19.585Z,11.34
2018-11-03T16:32:47.153Z,11.33
2018-11-03T16:35:14.541Z,11.33
2018-11-03T16:37:42.326Z,11.38
2018-11-03T16:40:11.310Z,11.33
2018-11-03T16:42:38.766Z,11.34
2018-11-03T16:45:06.752Z,11.25
2018-11-03T16:47:34.373Z,11.29
2018-11-03T16:50:01.826Z,11.23
2018-11-03T16:52:29.321Z,11.28
2018-11-03T16:54:56.704Z,11.22
2018-11-03T16:57:24.232Z,11.28
2018-11-03T16:59:51.663Z,11.26
2018-11-03T17:02:19.106Z,11.26
2018-11-03T17:04:47.256Z,11.24
2018-11-03T17:07:14.706Z,11.23
2018-11-03T17:09:42.143Z,11.25
2018-11-03T17:12:09.590Z,11.14
2018-11-03T17:14:37.043Z,11.13
2018-11-03T17:17:04.543Z,11.03
2018-11-03T17:19:32.102Z,11.04
2018-11-03T17:21:59.564Z,10.98
2018-11-03T17:24:27.010Z,11.07
2018-11-03T17:26:54.481Z,11.11
2018-11-03T17:29:21.934Z,11.26
2018-11-03T17:31:49.387Z,11.08
2018-11-03T17:34:16.953Z,11.11
2018-11-03T17:36:44.391Z,11.05
2018-11-03T17:39:12.360Z,11.06
2018-11-03T17:41:39.837Z,11.01
2018-11-03T17:44:07.339Z,10.95
2018-11-03T17:46:34.962Z,10.97
2018-11-03T17:49:02.402Z,10.81
2018-11-03T17:51:29.869Z,10.75
2018-11-03T17:53:57.329Z,10.85
2018-11-03T17:56:24.766Z,10.80
2018-11-03T17:58:52.230Z,10.91
2018-11-03T18:01:19.786Z,10.90
2018-11-03T18:03:47.145Z,11.02
2018-11-03T18:06:14.584Z,11.09
2018-11-03T18:08:42.010Z,11.04
2018-11-03T18:11:09.447Z,10.93
2018-11-03T18:13:37.267Z,10.85
2018-11-03T18:16:04.711Z,10.91
2018-11-03T18:18:32.222Z,11.06
2018-11-03T18:20:59.655Z,11.00
2018-11-03T18:23:27.669Z,10.97
2018-11-03T18:25:55.154Z,10.95
2018-11-03T18:28:22.611Z,10.98
2018-11-03T18:30:50.074Z,11.00
2018-11-03T18:33:17.537Z,11.01
2018-11-03T18:35:44.885Z,11.11
2018-11-03T18:38:12.352Z,11.06
2018-11-03T18:40:39.771Z,11.09
2018-11-03T18:43:07.301Z,10.99
2018-11-03T18:45:34.739Z,11.10
2018-11-03T18:48:02.193Z,11.04
2018-11-03T18:50:29.638Z,11.03
2018-11-03T18:52:57.159Z,11.12
2018-11-03T18:55:24.641Z,11.14
2018-11-03T18:57:52.045Z,11.12
2018-11-03T19:00:19.546Z,11.08
2018-11-03T19:02:46.982Z,11.04
2018-11-03T19:05:14.429Z,11.04
2018-11-03T19:07:41.878Z,10.98
2018-11-03T19:10:09.787Z,11.09
2018-11-03T19:12:37.324Z,11.02
2018-11-03T19:15:04.778Z,10.93
2018-11-03T19:17:32.216Z,10.96
2018-11-03T19:19:59.665Z,10.95
2018-11-03T19:22:27.094Z,10.89
2018-11-03T19:24:54.898Z,10.89
2018-11-03T19:27:22.337Z,10.98
2018-11-03T19:29:49.940Z,10.95
2018-11-03T19:32:17.538Z,11.09
2018-11-03T19:34:44.943Z,11.25
2018-11-03T19:37:12.393Z,11.13
2018-11-03T19:39:39.849Z,11.11
2018-11-03T19:42:07.305Z,11.01
2018-11-03T19:44:34.769Z,11.06
2018-11-03T19:47:02.210Z,11.17
2018-11-03T19:49:29.691Z,11.00
2018-11-03T19:51:57.158Z,11.19
2018-11-03T19:54:24.618Z,11.30
2018-11-03T19:56:52.054Z,11.11
2018-11-03T19:59:19.490Z,10.98
2018-11-03T20:01:46.926Z,10.94
2018-11-03T20:04:14.362Z,10.99
2018-11-03T20:06:41.806Z,11.10
2018-11-03T20:09:09.342Z,11.05
2018-11-03T20:11:36.796Z,11.04
2018-11-03T20:14:04.456Z,10.95
2018-11-03T20:16:31.926Z,10.95
2018-11-03T20:18:59.412Z,11.19
2018-11-03T20:21:26.914Z,11.34
2018-11-03T20:23:54.362Z,11.12
2018-11-03T20:26:21.946Z,11.10
2018-11-03T20:28:49.313Z,11.12
2018-11-03T20:31:16.758Z,11.08
2018-11-03T20:33:44.202Z,11.14
2018-11-03T20:36:11.646Z,11.14
2018-11-03T20:38:39.099Z,11.08
2018-11-03T20:41:06.542Z,11.10
2018-11-03T20:43:33.986Z,11.22
2018-11-03T20:46:01.430Z,11.22
2018-11-03T20:48:28.866Z,11.21
2018-11-03T20:51:01.590Z,11.18
2018-11-03T20:53:29.030Z,11.03
2018-11-03T20:55:56.472Z,11.04
2018-11-03T20:58:23.927Z,11.18
2018-11-03T21:00:51.440Z,11.12
2018-11-03T21:03:18.862Z,11.14
2018-11-03T21:05:46.302Z,11.18
2018-11-03T21:08:13.859Z,11.13
2018-11-03T21:10:41.223Z,11.13
2018-11-03T21:13:08.666Z,11.07
2018-11-03T21:15:36.118Z,11.10
2018-11-03T21:18:03.817Z,11.14
2018-11-03T21:20:31.322Z,11.22
2018-11-03T21:22:58.758Z,11.18
2018-11-03T21:25:26.206Z,11.23
2018-11-03T21:27:53.647Z,11.14
2018-11-03T21:30:21.082Z,11.16
2018-11-03T21:32:48.630Z,11.17
2018-11-03T21:35:16.053Z,11.13
2018-11-03T21:37:43.498Z,11.11
2018-11-03T21:40:11.011Z,11.08
2018-11-03T21:42:38.582Z,11.10
2018-11-03T21:45:06.022Z,11.16
2018-11-03T21:47:33.471Z,11.17
2018-11-03T21:50:00.909Z,11.10
2018-11-03T21:52:28.477Z,11.13
2018-11-03T21:54:55.926Z,11.13
2018-11-03T21:57:23.385Z,11.04
2018-11-03T21:59:50.837Z,11.03
2018-11-03T22:02:18.398Z,11.05
2018-11-03T22:04:46.013Z,11.11
2018-11-03T22:07:13.459Z,11.05
2018-11-03T22:09:40.902Z,11.05
2018-11-03T22:12:08.348Z,11.08
2018-11-03T22:14:35.803Z,10.95
2018-11-03T22:17:03.253Z,11.00
2018-11-03T22:19:30.688Z,10.94
2018-11-03T22:21:58.134Z,10.93
2018-11-03T22:24:25.570Z,10.91
2018-11-03T22:26:53.015Z,10.95
2018-11-03T22:29:20.465Z,10.90
2018-11-03T22:31:47.930Z,10.91
2018-11-03T22:34:15.430Z,10.89
2018-11-03T22:36:42.869Z,10.82
2018-11-03T22:39:10.301Z,10.87
2018-11-03T22:41:38.138Z,10.69
2018-11-03T22:44:05.581Z,10.59
2018-11-03T22:46:33.062Z,10.62
2018-11-03T22:49:01.206Z,10.72
2018-11-03T22:51:28.748Z,10.62
2018-11-03T22:53:56.109Z,10.68
2018-11-03T22:56:23.630Z,10.76
2018-11-03T22:58:51.074Z,10.80
2018-11-03T23:01:18.542Z,10.78
2018-11-03T23:03:45.989Z,10.75
2018-11-03T23:06:13.453Z,10.63
2018-11-03T23:08:40.886Z,10.65
2018-11-03T23:11:08.329Z,10.69
2018-11-03T23:13:35.769Z,10.56
2018-11-03T23:16:03.207Z,10.46
2018-11-03T23:18:30.646Z,10.35
2018-11-03T23:20:58.094Z,10.36
2018-11-03T23:23:25.549Z,10.16
2018-11-03T23:25:53.012Z,10.21
2018-11-03T23:28:20.455Z,10.17
2018-11-03T23:30:47.946Z,10.27
2018-11-03T23:33:15.406Z,10.18
2018-11-03T23:35:42.846Z,10.29
2018-11-03T23:38:10.343Z,10.30
2018-11-03T23:40:37.774Z,10.38
2018-11-03T23:43:05.331Z,10.38
2018-11-03T23:45:32.870Z,10.50
2018-11-03T23:48:00.306Z,10.32
2018-11-03T23:50:27.766Z,10.38
2018-11-03T23:52:55.189Z,10.46
2018-11-03T23:55:22.627Z,10.40
2018-11-03T23:57:50.078Z,10.38
